createdAt,value
2024-05-09T00:00:06.747Z,604.00
2024-05-09T00:01:05.250Z,604.00
2024-05-09T00:02:05.335Z,606.00
2024-05-09T00:03:05.274Z,606.00
2024-05-09T00:04:05.280Z,604.00
2024-05-09T00:05:05.323Z,603.00
2024-05-09T00:06:05.586Z,602.00
2024-05-09T00:07:05.235Z,606.00
2024-05-09T00:08:05.401Z,606.00
2024-05-09T00:09:05.227Z,606.00
2024-05-09T00:10:07.141Z,606.00
2024-05-09T00:11:05.387Z,606.00
2024-05-09T00:12:05.518Z,607.00
2024-05-09T00:13:05.432Z,607.00
2024-05-09T00:14:05.284Z,607.00
2024-05-09T00:15:05.228Z,607.00
2024-05-09T00:16:05.233Z,606.00
2024-05-09T00:17:05.302Z,606.00
2024-05-09T00:18:06.101Z,607.00
2024-05-09T00:19:05.372Z,604.00
2024-05-09T00:20:10.911Z,608.00
2024-05-09T00:21:06.450Z,608.00
2024-05-09T00:22:05.251Z,608.00
2024-05-09T00:23:05.328Z,603.00
2024-05-09T00:24:05.252Z,606.00
2024-05-09T00:25:05.224Z,607.00
2024-05-09T00:26:05.369Z,607.00
2024-05-09T00:27:05.246Z,602.00
2024-05-09T00:28:05.484Z,606.00
2024-05-09T00:29:05.334Z,604.00
2024-05-09T00:30:07.203Z,605.00
2024-05-09T00:31:05.243Z,605.00
2024-05-09T00:32:05.397Z,605.00
2024-05-09T00:33:06.601Z,605.00
2024-05-09T00:34:05.824Z,606.00
2024-05-09T00:35:05.496Z,605.00
2024-05-09T00:36:05.523Z,603.00
2024-05-09T00:37:05.665Z,605.00
2024-05-09T00:38:05.698Z,603.00
2024-05-09T00:39:05.652Z,603.00
2024-05-09T00:40:07.406Z,603.00
2024-05-09T00:41:05.786Z,604.00
2024-05-09T00:42:05.753Z,600.00
2024-05-09T00:43:05.812Z,601.00
2024-05-09T00:44:05.847Z,604.00
2024-05-09T00:45:05.841Z,602.00
2024-05-09T00:46:05.901Z,602.00
2024-05-09T00:47:06.080Z,603.00
2024-05-09T00:48:06.150Z,606.00
2024-05-09T00:49:06.070Z,604.00
2024-05-09T00:50:10.104Z,603.00
2024-05-09T00:51:07.112Z,603.00
2024-05-09T00:52:06.035Z,604.00
2024-05-09T00:53:06.180Z,603.00
2024-05-09T00:54:06.069Z,605.00
2024-05-09T00:55:06.054Z,598.00
2024-05-09T00:56:06.053Z,604.00
2024-05-09T00:57:06.115Z,605.00
2024-05-09T00:58:06.055Z,604.00
2024-05-09T00:59:06.094Z,604.00
2024-05-09T01:00:07.769Z,601.00
2024-05-09T01:01:06.088Z,601.00
2024-05-09T01:02:06.125Z,602.00
2024-05-09T01:03:06.275Z,603.00
2024-05-09T01:04:06.118Z,603.00
2024-05-09T01:05:06.137Z,604.00
2024-05-09T01:06:06.077Z,603.00
2024-05-09T01:07:06.081Z,600.00
2024-05-09T01:08:06.091Z,602.00
2024-05-09T01:09:06.068Z,603.00
2024-05-09T01:10:11.486Z,603.00
2024-05-09T01:11:07.133Z,603.00
2024-05-09T01:12:06.150Z,604.00
2024-05-09T01:13:06.490Z,604.00
2024-05-09T01:14:06.122Z,605.00
2024-05-09T01:15:06.072Z,605.00
2024-05-09T01:16:06.150Z,604.00
2024-05-09T01:17:06.107Z,602.00
2024-05-09T01:18:06.181Z,601.00
2024-05-09T01:19:06.157Z,604.00
2024-05-09T01:20:08.153Z,603.00
2024-05-09T01:21:06.084Z,603.00
2024-05-09T01:22:06.075Z,603.00
2024-05-09T01:23:06.150Z,603.00
2024-05-09T01:24:06.090Z,603.00
2024-05-09T01:25:06.056Z,602.00
2024-05-09T01:26:06.111Z,601.00
2024-05-09T01:27:06.106Z,602.00
2024-05-09T01:28:06.140Z,602.00
2024-05-09T01:29:06.132Z,603.00
2024-05-09T01:30:09.528Z,602.00
2024-05-09T01:31:07.079Z,602.00
2024-05-09T01:32:06.203Z,602.00
2024-05-09T01:33:07.887Z,603.00
2024-05-09T01:34:06.109Z,602.00
2024-05-09T01:35:06.093Z,602.00
2024-05-09T01:36:06.083Z,603.00
2024-05-09T01:37:06.110Z,603.00
2024-05-09T01:38:06.339Z,604.00
2024-05-09T01:39:06.095Z,603.00
2024-05-09T01:40:09.590Z,603.00
2024-05-09T01:41:07.133Z,604.00
2024-05-09T01:42:06.103Z,604.00
2024-05-09T01:43:06.216Z,604.00
2024-05-09T01:44:06.139Z,604.00
2024-05-09T01:45:06.093Z,605.00
2024-05-09T01:46:06.106Z,605.00
2024-05-09T01:47:06.136Z,602.00
2024-05-09T01:48:06.536Z,602.00
2024-05-09T01:49:06.281Z,603.00
2024-05-09T01:50:09.047Z,603.00
2024-05-09T01:51:06.129Z,603.00
2024-05-09T01:52:06.114Z,603.00
2024-05-09T01:53:06.201Z,603.00
2024-05-09T01:54:06.095Z,604.00
2024-05-09T01:55:06.892Z,602.00
2024-05-09T01:56:06.171Z,604.00
2024-05-09T01:57:06.154Z,602.00
2024-05-09T01:58:06.195Z,600.00
2024-05-09T01:59:06.206Z,601.00
2024-05-09T02:00:07.726Z,602.00
2024-05-09T02:01:06.192Z,603.00
2024-05-09T02:02:06.190Z,601.00
2024-05-09T02:03:06.343Z,603.00
2024-05-09T02:04:06.545Z,600.00
2024-05-09T02:05:06.433Z,604.00
2024-05-09T02:06:06.419Z,603.00
2024-05-09T02:07:06.166Z,602.00
2024-05-09T02:08:06.128Z,602.00
2024-05-09T02:09:06.141Z,604.00
2024-05-09T02:10:13.640Z,603.00
2024-05-09T02:11:07.200Z,604.00
2024-05-09T02:12:06.379Z,604.00
2024-05-09T02:13:06.131Z,604.00
2024-05-09T02:14:06.167Z,605.00
2024-05-09T02:15:06.137Z,604.00
2024-05-09T02:16:06.161Z,602.00
2024-05-09T02:17:06.234Z,604.00
2024-05-09T02:18:06.306Z,605.00
2024-05-09T02:19:06.297Z,605.00
2024-05-09T02:20:06.520Z,603.00
2024-05-09T02:21:06.188Z,603.00
2024-05-09T02:22:06.170Z,605.00
2024-05-09T02:23:06.756Z,604.00
2024-05-09T02:24:06.142Z,602.00
2024-05-09T02:26:03.885Z,600.00
2024-05-09T02:27:03.845Z,600.00
2024-05-09T02:28:03.841Z,600.00
2024-05-09T02:29:03.856Z,600.00
2024-05-09T02:30:07.840Z,600.00
2024-05-09T02:31:04.868Z,600.00
2024-05-09T02:32:03.997Z,600.00
2024-05-09T02:33:04.016Z,600.00
2024-05-09T02:34:04.088Z,600.00
2024-05-09T02:35:03.885Z,600.00
2024-05-09T02:36:03.850Z,600.00
2024-05-09T02:37:03.876Z,600.00
2024-05-09T02:38:03.947Z,601.00
2024-05-09T02:39:03.844Z,601.00
2024-05-09T02:40:05.598Z,600.00
2024-05-09T02:41:03.970Z,600.00
2024-05-09T02:42:03.872Z,601.00
2024-05-09T02:43:03.990Z,600.00
2024-05-09T02:44:03.941Z,601.00
2024-05-09T02:45:03.850Z,601.00
2024-05-09T02:46:03.903Z,601.00
2024-05-09T02:47:03.949Z,601.00
2024-05-09T02:48:04.272Z,602.00
2024-05-09T02:49:04.102Z,600.00
2024-05-09T02:50:05.969Z,602.00
2024-05-09T02:51:04.108Z,604.00
2024-05-09T02:52:04.122Z,601.00
2024-05-09T02:53:04.323Z,602.00
2024-05-09T02:54:04.189Z,602.00
2024-05-09T02:55:04.234Z,602.00
2024-05-09T02:56:04.334Z,601.00
2024-05-09T02:57:04.311Z,601.00
2024-05-09T02:58:04.362Z,603.00
2024-05-09T02:59:04.442Z,603.00
2024-05-09T03:00:06.117Z,601.00
2024-05-09T03:01:04.540Z,606.00
2024-05-09T03:02:04.587Z,601.00
2024-05-09T03:03:04.734Z,603.00
2024-05-09T03:04:04.603Z,601.00
2024-05-09T03:05:04.562Z,600.00
2024-05-09T03:06:04.528Z,601.00
2024-05-09T03:07:04.441Z,602.00
2024-05-09T03:08:04.730Z,602.00
2024-05-09T03:09:04.466Z,603.00
2024-05-09T03:10:05.764Z,602.00
2024-05-09T03:11:04.534Z,602.00
2024-05-09T03:12:04.608Z,603.00
2024-05-09T03:13:04.471Z,603.00
2024-05-09T03:14:04.511Z,604.00
2024-05-09T03:15:04.478Z,605.00
2024-05-09T03:16:04.447Z,604.00
2024-05-09T03:17:04.562Z,603.00
2024-05-09T03:18:04.783Z,602.00
2024-05-09T03:19:04.822Z,603.00
2024-05-09T03:20:06.972Z,603.00
2024-05-09T03:21:05.592Z,604.00
2024-05-09T03:22:04.546Z,604.00
2024-05-09T03:23:05.233Z,604.00
2024-05-09T03:24:04.473Z,605.00
2024-05-09T03:25:04.484Z,606.00
2024-05-09T03:26:04.516Z,605.00
2024-05-09T03:27:04.493Z,604.00
2024-05-09T03:28:04.499Z,603.00
2024-05-09T03:29:04.586Z,602.00
2024-05-09T03:30:07.306Z,604.00
2024-05-09T03:31:04.504Z,603.00
2024-05-09T03:32:04.621Z,602.00
2024-05-09T03:33:04.676Z,603.00
2024-05-09T03:34:04.842Z,602.00
2024-05-09T03:35:04.515Z,603.00
2024-05-09T03:36:06.192Z,602.00
2024-05-09T03:37:04.519Z,602.00
2024-05-09T03:38:04.586Z,603.00
2024-05-09T03:39:04.487Z,604.00
2024-05-09T03:40:09.170Z,601.00
2024-05-09T03:41:05.555Z,602.00
2024-05-09T03:42:04.538Z,603.00
2024-05-09T03:43:04.524Z,604.00
2024-05-09T03:44:04.547Z,604.00
2024-05-09T03:45:04.520Z,604.00
2024-05-09T03:46:04.522Z,604.00
2024-05-09T03:47:04.549Z,604.00
2024-05-09T03:48:04.740Z,602.00
2024-05-09T03:49:04.624Z,602.00
2024-05-09T03:50:05.780Z,602.00
2024-05-09T03:51:04.650Z,604.00
2024-05-09T03:52:04.540Z,602.00
2024-05-09T03:53:04.647Z,601.00
2024-05-09T03:54:04.515Z,601.00
2024-05-09T03:55:04.526Z,601.00
2024-05-09T03:56:04.575Z,601.00
2024-05-09T03:57:04.493Z,601.00
2024-05-09T03:58:04.509Z,600.00
2024-05-09T03:59:04.528Z,601.00
2024-05-09T04:00:07.414Z,601.00
2024-05-09T04:01:05.602Z,601.00
2024-05-09T04:02:04.650Z,602.00
2024-05-09T04:03:05.494Z,602.00
2024-05-09T04:04:04.614Z,603.00
2024-05-09T04:05:04.590Z,604.00
2024-05-09T04:06:04.571Z,604.00
2024-05-09T04:07:04.538Z,604.00
2024-05-09T04:08:04.641Z,604.00
2024-05-09T04:09:04.561Z,603.00
2024-05-09T04:10:06.796Z,602.00
2024-05-09T04:11:04.708Z,602.00
2024-05-09T04:12:04.761Z,603.00
2024-05-09T04:13:04.652Z,603.00
2024-05-09T04:14:04.631Z,603.00
2024-05-09T04:15:04.547Z,602.00
2024-05-09T04:16:04.564Z,602.00
2024-05-09T04:17:04.600Z,603.00
2024-05-09T04:18:04.786Z,603.00
2024-05-09T04:19:04.710Z,603.00
2024-05-09T04:20:06.564Z,603.00
2024-05-09T04:21:04.756Z,603.00
2024-05-09T04:22:04.586Z,603.00
2024-05-09T04:23:04.638Z,603.00
2024-05-09T04:24:04.581Z,603.00
2024-05-09T04:25:04.606Z,603.00
2024-05-09T04:26:04.676Z,601.00
2024-05-09T04:27:04.582Z,602.00
2024-05-09T04:28:04.587Z,602.00
2024-05-09T04:29:04.639Z,602.00
2024-05-09T04:30:06.192Z,603.00
2024-05-09T04:31:04.590Z,603.00
2024-05-09T04:32:04.676Z,603.00
2024-05-09T04:33:04.748Z,603.00
2024-05-09T04:34:12.343Z,600.00
2024-05-09T04:35:12.175Z,600.00
2024-05-09T04:36:12.151Z,600.00
2024-05-09T04:37:12.156Z,600.00
2024-05-09T04:38:12.245Z,600.00
2024-05-09T04:39:12.151Z,600.00
2024-05-09T04:40:21.026Z,600.00
2024-05-09T04:41:13.210Z,600.00
2024-05-09T04:42:12.128Z,600.00
2024-05-09T04:43:12.173Z,599.00
2024-05-09T04:44:12.192Z,597.00
2024-05-09T04:45:12.161Z,596.00
2024-05-09T04:46:12.162Z,600.00
2024-05-09T04:47:12.303Z,602.00
2024-05-09T04:48:12.419Z,600.00
2024-05-09T04:49:12.255Z,601.00
2024-05-09T04:50:20.993Z,601.00
2024-05-09T04:51:13.212Z,601.00
2024-05-09T04:52:12.181Z,601.00
2024-05-09T04:53:12.273Z,602.00
2024-05-09T04:54:25.753Z,600.00
2024-05-09T04:55:13.175Z,601.00
2024-05-09T04:56:12.202Z,601.00
2024-05-09T04:57:12.159Z,601.00
2024-05-09T04:58:12.247Z,601.00
2024-05-09T04:59:12.272Z,601.00
2024-05-09T05:00:14.956Z,600.00
2024-05-09T05:01:13.240Z,600.00
2024-05-09T05:02:12.256Z,600.00
2024-05-09T05:03:14.691Z,601.00
2024-05-09T05:04:12.283Z,600.00
2024-05-09T05:05:12.343Z,600.00
2024-05-09T05:06:12.187Z,601.00
2024-05-09T05:07:12.192Z,601.00
2024-05-09T05:08:12.300Z,602.00
2024-05-09T05:09:12.196Z,600.00
2024-05-09T05:10:21.321Z,601.00
2024-05-09T05:11:13.512Z,602.00
2024-05-09T05:12:12.398Z,602.00
2024-05-09T05:13:12.188Z,602.00
2024-05-09T05:14:12.194Z,604.00
2024-05-09T05:15:12.199Z,602.00
2024-05-09T05:16:12.226Z,603.00
2024-05-09T05:17:12.320Z,603.00
2024-05-09T05:18:12.247Z,601.00
2024-05-09T05:19:15.092Z,599.00
2024-05-09T05:20:15.261Z,600.00
2024-05-09T05:21:13.323Z,600.00
2024-05-09T05:22:12.217Z,601.00
2024-05-09T05:23:12.308Z,601.00
2024-05-09T05:24:12.204Z,602.00
2024-05-09T05:25:12.290Z,602.00
2024-05-09T05:26:12.308Z,602.00
2024-05-09T05:27:12.242Z,603.00
2024-05-09T05:28:12.255Z,601.00
2024-05-09T05:29:12.352Z,603.00
2024-05-09T05:31:12.317Z,600.00
2024-05-09T05:32:12.359Z,601.00
2024-05-09T05:33:12.531Z,600.00
2024-05-09T05:34:12.348Z,600.00
2024-05-09T05:35:12.363Z,600.00
2024-05-09T05:36:12.364Z,601.00
2024-05-09T05:37:12.441Z,602.00
2024-05-09T05:38:12.494Z,600.00
2024-05-09T05:39:12.505Z,603.00
2024-05-09T05:40:20.930Z,600.00
2024-05-09T05:41:13.596Z,600.00
2024-05-09T05:42:12.578Z,601.00
2024-05-09T05:43:12.553Z,601.00
2024-05-09T05:44:12.572Z,602.00
2024-05-09T05:45:12.562Z,602.00
2024-05-09T05:46:12.581Z,601.00
2024-05-09T05:47:12.701Z,600.00
2024-05-09T05:48:12.868Z,600.00
2024-05-09T05:49:12.851Z,601.00
2024-05-09T05:50:23.639Z,600.00
2024-05-09T05:51:13.795Z,600.00
2024-05-09T05:52:12.574Z,600.00
2024-05-09T05:53:12.646Z,600.00
2024-05-09T05:54:12.580Z,601.00
2024-05-09T05:55:12.600Z,601.00
2024-05-09T05:56:12.684Z,600.00
2024-05-09T05:57:12.579Z,600.00
2024-05-09T05:58:12.748Z,601.00
2024-05-09T05:59:15.049Z,600.00
2024-05-09T06:01:12.968Z,601.00
2024-05-09T06:02:13.129Z,601.00
2024-05-09T06:03:13.712Z,600.00
2024-05-09T06:04:13.144Z,601.00
2024-05-09T06:05:13.184Z,601.00
2024-05-09T06:06:13.117Z,602.00
2024-05-09T06:07:13.131Z,600.00
2024-05-09T06:08:13.266Z,601.00
2024-05-09T06:09:13.256Z,602.00
2024-05-09T06:10:20.955Z,600.00
2024-05-09T06:11:14.337Z,600.00
2024-05-09T06:12:13.429Z,600.00
2024-05-09T06:13:14.278Z,601.00
2024-05-09T06:14:13.302Z,602.00
2024-05-09T06:15:13.310Z,603.00
2024-05-09T06:16:13.324Z,604.00
2024-05-09T06:17:13.500Z,603.00
2024-05-09T06:18:13.623Z,602.00
2024-05-09T06:19:13.374Z,603.00
2024-05-09T06:20:20.450Z,604.00
2024-05-09T06:21:14.474Z,604.00
2024-05-09T06:22:13.303Z,604.00
2024-05-09T06:23:13.666Z,605.00
2024-05-09T06:24:13.290Z,604.00
2024-05-09T06:25:13.325Z,602.00
2024-05-09T06:26:13.367Z,602.00
2024-05-09T06:27:13.310Z,601.00
2024-05-09T06:28:13.315Z,601.00
2024-05-09T06:29:13.356Z,601.00
2024-05-09T06:30:24.885Z,600.00
2024-05-09T06:31:14.314Z,600.00
2024-05-09T06:32:13.388Z,600.00
2024-05-09T06:33:15.522Z,601.00
2024-05-09T06:34:13.532Z,603.00
2024-05-09T06:35:13.358Z,603.00
2024-05-09T06:36:13.306Z,601.00
2024-05-09T06:37:13.331Z,601.00
2024-05-09T06:38:13.541Z,602.00
2024-05-09T06:39:13.320Z,601.00
2024-05-09T06:40:17.431Z,604.00
2024-05-09T06:41:13.344Z,604.00
2024-05-09T06:42:13.316Z,605.00
2024-05-09T06:43:13.501Z,605.00
2024-05-09T06:44:13.374Z,603.00
2024-05-09T06:45:13.329Z,601.00
2024-05-09T06:46:13.311Z,601.00
2024-05-09T06:47:13.440Z,600.00
2024-05-09T06:48:13.524Z,602.00
2024-05-09T06:49:13.578Z,600.00
2024-05-09T06:50:20.448Z,601.00
2024-05-09T06:51:14.401Z,601.00
2024-05-09T06:52:13.316Z,601.00
2024-05-09T06:53:13.374Z,602.00
2024-05-09T06:54:13.326Z,602.00
2024-05-09T06:55:13.338Z,603.00
2024-05-09T06:56:13.424Z,603.00
2024-05-09T06:57:13.323Z,602.00
2024-05-09T06:58:13.345Z,602.00
2024-05-09T06:59:13.371Z,601.00
2024-05-09T07:01:13.381Z,600.00
2024-05-09T07:02:13.447Z,601.00
2024-05-09T07:03:15.680Z,603.00
2024-05-09T07:04:13.560Z,603.00
2024-05-09T07:05:13.515Z,604.00
2024-05-09T07:06:13.351Z,604.00
2024-05-09T07:07:13.356Z,602.00
2024-05-09T07:08:14.559Z,602.00
2024-05-09T07:09:13.382Z,604.00
2024-05-09T07:11:13.395Z,606.00
2024-05-09T07:12:13.562Z,600.00
2024-05-09T07:13:13.656Z,602.00
2024-05-09T07:14:13.456Z,605.00
2024-05-09T07:15:13.378Z,603.00
2024-05-09T07:16:13.350Z,604.00
2024-05-09T07:17:13.464Z,603.00
2024-05-09T07:18:14.074Z,604.00
2024-05-09T07:19:13.538Z,603.00
2024-05-09T07:20:19.990Z,602.00
2024-05-09T07:21:14.726Z,602.00
2024-05-09T07:22:13.354Z,602.00
2024-05-09T07:23:13.545Z,603.00
2024-05-09T07:24:13.362Z,604.00
2024-05-09T07:25:13.373Z,604.00
2024-05-09T07:26:13.415Z,603.00
2024-05-09T07:27:13.384Z,604.00
2024-05-09T07:28:13.397Z,604.00
2024-05-09T07:29:13.416Z,605.00
2024-05-09T07:31:13.385Z,605.00
2024-05-09T07:32:13.677Z,602.00
2024-05-09T07:33:13.547Z,603.00
2024-05-09T07:34:13.665Z,602.00
2024-05-09T07:35:13.440Z,604.00
2024-05-09T07:36:13.379Z,603.00
2024-05-09T07:37:13.404Z,602.00
2024-05-09T07:38:13.516Z,600.00
2024-05-09T07:39:13.374Z,604.00
2024-05-09T07:41:14.451Z,606.00
2024-05-09T07:42:13.387Z,606.00
2024-05-09T07:43:13.521Z,608.00
2024-05-09T07:44:13.421Z,607.00
2024-05-09T07:47:13.712Z,607.00
2024-05-09T07:48:28.645Z,607.00
2024-05-09T07:49:45.028Z,607.00
2024-05-09T07:53:29.603Z,607.00
2024-05-09T07:53:37.756Z,607.00
2024-05-09T07:54:14.935Z,607.00
2024-05-09T07:55:13.750Z,607.00
2024-05-09T07:56:14.105Z,609.00
2024-05-09T07:57:13.700Z,611.00
2024-05-09T07:58:13.654Z,610.00
2024-05-09T07:59:13.652Z,612.00
2024-05-09T08:00:17.332Z,608.00
2024-05-09T08:01:14.819Z,609.00
2024-05-09T08:02:13.755Z,609.00
2024-05-09T08:03:13.873Z,609.00
2024-05-09T08:04:13.807Z,609.00
2024-05-09T08:05:13.748Z,609.00
2024-05-09T08:06:13.701Z,606.00
2024-05-09T08:07:13.847Z,609.00
2024-05-09T08:08:13.675Z,608.00
2024-05-09T08:09:16.987Z,606.00
2024-05-09T08:10:19.126Z,606.00
2024-05-09T08:11:14.781Z,606.00
2024-05-09T08:12:13.667Z,607.00
2024-05-09T08:13:13.762Z,608.00
2024-05-09T08:14:13.693Z,608.00
2024-05-09T08:15:13.686Z,612.00
2024-05-09T08:16:13.919Z,606.00
2024-05-09T08:17:13.735Z,607.00
2024-05-09T08:18:13.833Z,610.00
2024-05-09T08:19:13.799Z,607.00
2024-05-09T08:20:22.830Z,605.00
2024-05-09T08:21:14.699Z,605.00
2024-05-09T08:22:13.827Z,606.00
2024-05-09T08:23:13.693Z,606.00
2024-05-09T08:24:13.672Z,606.00
2024-05-09T08:25:14.396Z,604.00
2024-05-09T08:26:13.698Z,606.00
2024-05-09T08:27:13.760Z,606.00
2024-05-09T08:28:14.039Z,603.00
2024-05-09T08:29:13.703Z,605.00
2024-05-09T08:31:13.751Z,600.00
2024-05-09T08:32:13.843Z,603.00
2024-05-09T08:33:13.928Z,606.00
2024-05-09T08:34:13.888Z,606.00
2024-05-09T08:35:13.709Z,603.00
2024-05-09T08:36:13.719Z,604.00
2024-05-09T08:38:13.775Z,603.00
2024-05-09T08:39:13.697Z,601.00
2024-05-09T08:40:23.632Z,601.00
2024-05-09T08:41:14.709Z,601.00
2024-05-09T08:42:13.722Z,602.00
2024-05-09T08:43:13.995Z,603.00
2024-05-09T08:44:13.722Z,603.00
2024-05-09T08:45:13.727Z,603.00
2024-05-09T08:46:13.875Z,602.00
2024-05-09T08:47:13.759Z,603.00
2024-05-09T08:48:15.226Z,601.00
2024-05-09T08:49:13.920Z,605.00
2024-05-09T08:50:23.575Z,600.00
2024-05-09T08:51:14.791Z,600.00
2024-05-09T08:52:13.824Z,600.00
2024-05-09T08:53:13.785Z,600.00
2024-05-09T08:54:13.765Z,604.00
2024-05-09T08:55:13.864Z,604.00
2024-05-09T08:56:13.783Z,602.00
2024-05-09T08:57:13.775Z,606.00
2024-05-09T08:58:14.140Z,606.00
2024-05-09T08:59:13.782Z,603.00
2024-05-09T09:00:18.162Z,601.00
2024-05-09T09:01:14.880Z,602.00
2024-05-09T09:02:14.165Z,602.00
2024-05-09T09:03:13.850Z,603.00
2024-05-09T09:04:14.002Z,604.00
2024-05-09T09:05:13.941Z,609.00
2024-05-09T09:06:13.801Z,606.00
2024-05-09T09:07:13.908Z,605.00
2024-05-09T09:08:13.826Z,606.00
2024-05-09T09:09:13.811Z,606.00
2024-05-09T09:10:21.112Z,605.00
2024-05-09T09:11:14.854Z,605.00
2024-05-09T09:12:13.821Z,604.00
2024-05-09T09:13:14.037Z,605.00
2024-05-09T09:14:13.847Z,607.00
2024-05-09T09:15:13.835Z,606.00
2024-05-09T09:16:13.862Z,605.00
2024-05-09T09:17:13.840Z,603.00
2024-05-09T09:18:13.911Z,602.00
2024-05-09T09:19:14.023Z,602.00
2024-05-09T09:20:16.720Z,604.00
2024-05-09T09:21:14.846Z,604.00
2024-05-09T09:22:13.840Z,604.00
2024-05-09T09:23:13.837Z,604.00
2024-05-09T09:24:13.832Z,606.00
2024-05-09T09:25:13.887Z,606.00
2024-05-09T09:26:13.826Z,604.00
2024-05-09T09:27:13.859Z,602.00
2024-05-09T09:28:13.920Z,607.00
2024-05-09T09:29:13.835Z,603.00
2024-05-09T09:30:27.687Z,601.00
2024-05-09T09:31:14.928Z,601.00
2024-05-09T09:32:13.917Z,602.00
2024-05-09T09:33:14.107Z,602.00
2024-05-09T09:34:13.970Z,601.00
2024-05-09T09:35:13.920Z,599.00
2024-05-09T09:36:13.918Z,602.00
2024-05-09T09:37:13.995Z,602.00
2024-05-09T09:38:13.985Z,604.00
2024-05-09T09:39:14.014Z,608.00
2024-05-09T09:40:17.997Z,607.00
2024-05-09T09:41:14.164Z,607.00
2024-05-09T09:42:14.102Z,607.00
2024-05-09T09:43:14.424Z,608.00
2024-05-09T09:44:14.135Z,610.00
2024-05-09T09:45:14.092Z,608.00
2024-05-09T09:46:14.224Z,605.00
2024-05-09T09:47:14.177Z,607.00
2024-05-09T09:48:14.189Z,607.00
2024-05-09T09:49:14.337Z,605.00
2024-05-09T09:50:17.112Z,608.00
2024-05-09T09:51:15.087Z,609.00
2024-05-09T09:52:14.180Z,609.00
2024-05-09T09:53:14.136Z,605.00
2024-05-09T09:54:14.093Z,609.00
2024-05-09T09:55:14.167Z,608.00
2024-05-09T09:56:14.098Z,604.00
2024-05-09T09:57:14.106Z,604.00
2024-05-09T09:58:14.696Z,605.00
2024-05-09T09:59:14.191Z,606.00
2024-05-09T10:00:20.712Z,604.00
2024-05-09T10:01:15.352Z,605.00
2024-05-09T10:02:14.487Z,605.00
2024-05-09T10:03:14.318Z,605.00
2024-05-09T10:04:14.344Z,599.00
2024-05-09T10:05:14.396Z,604.00
2024-05-09T10:06:14.251Z,606.00
2024-05-09T10:07:14.359Z,605.00
2024-05-09T10:08:14.243Z,603.00
2024-05-09T10:09:14.278Z,605.00
2024-05-09T10:10:19.856Z,602.00
2024-05-09T10:11:15.343Z,602.00
2024-05-09T10:12:14.446Z,603.00
2024-05-09T10:13:14.504Z,604.00
2024-05-09T10:14:14.350Z,603.00
2024-05-09T10:15:14.387Z,607.00
2024-05-09T10:16:14.462Z,606.00
2024-05-09T10:17:14.367Z,604.00
2024-05-09T10:18:14.627Z,604.00
2024-05-09T10:19:14.507Z,606.00
2024-05-09T10:20:21.427Z,603.00
2024-05-09T10:21:15.403Z,603.00
2024-05-09T10:22:14.573Z,603.00
2024-05-09T10:23:14.458Z,604.00
2024-05-09T10:24:14.409Z,605.00
2024-05-09T10:25:14.485Z,604.00
2024-05-09T10:26:14.430Z,608.00
2024-05-09T10:27:14.422Z,603.00
2024-05-09T10:28:14.561Z,606.00
2024-05-09T10:29:14.432Z,605.00
2024-05-09T10:30:21.293Z,606.00
2024-05-09T10:31:15.780Z,606.00
2024-05-09T10:32:14.535Z,606.00
2024-05-09T10:33:14.697Z,606.00
2024-05-09T10:34:14.727Z,604.00
2024-05-09T10:35:14.491Z,605.00
2024-05-09T10:36:14.546Z,609.00
2024-05-09T10:37:14.639Z,606.00
2024-05-09T10:38:14.909Z,608.00
2024-05-09T10:39:14.506Z,610.00
2024-05-09T10:40:23.262Z,609.00
2024-05-09T10:41:15.549Z,609.00
2024-05-09T10:42:14.534Z,609.00
2024-05-09T10:43:14.649Z,610.00
2024-05-09T10:44:14.522Z,610.00
2024-05-09T10:45:14.535Z,608.00
2024-05-09T10:46:14.852Z,608.00
2024-05-09T10:47:14.546Z,605.00
2024-05-09T10:48:14.583Z,611.00
2024-05-09T10:49:14.694Z,606.00
2024-05-09T10:50:22.294Z,605.00
2024-05-09T10:51:15.575Z,605.00
2024-05-09T10:52:14.594Z,606.00
2024-05-09T10:53:14.544Z,606.00
2024-05-09T10:54:14.535Z,607.00
2024-05-09T10:55:14.626Z,608.00
2024-05-09T10:56:14.686Z,606.00
2024-05-09T10:57:14.534Z,609.00
2024-05-09T10:58:14.742Z,606.00
2024-05-09T10:59:14.544Z,608.00
2024-05-09T11:00:23.269Z,606.00
2024-05-09T11:01:15.628Z,606.00
2024-05-09T11:02:14.762Z,607.00
2024-05-09T11:03:14.685Z,608.00
2024-05-09T11:04:14.908Z,604.00
2024-05-09T11:05:14.617Z,611.00
2024-05-09T11:06:14.567Z,606.00
2024-05-09T11:07:14.754Z,607.00
2024-05-09T11:08:14.567Z,608.00
2024-05-09T11:09:14.573Z,607.00
2024-05-09T11:10:17.937Z,609.00
2024-05-09T11:11:15.607Z,609.00
2024-05-09T11:12:14.609Z,610.00
2024-05-09T11:13:14.748Z,610.00
2024-05-09T11:14:14.552Z,612.00
2024-05-09T11:15:14.546Z,609.00
2024-05-09T11:16:14.593Z,606.00
2024-05-09T11:17:14.610Z,608.00
2024-05-09T11:18:14.624Z,606.00
2024-05-09T11:19:14.878Z,606.00
2024-05-09T11:20:22.645Z,605.00
2024-05-09T11:21:15.590Z,605.00
2024-05-09T11:22:14.619Z,605.00
2024-05-09T11:23:14.577Z,603.00
2024-05-09T11:24:14.596Z,606.00
2024-05-09T11:25:14.665Z,608.00
2024-05-09T11:26:14.592Z,608.00
2024-05-09T11:27:14.560Z,608.00
2024-05-09T11:28:14.785Z,607.00
2024-05-09T11:29:17.921Z,605.00
2024-05-09T11:30:23.765Z,605.00
2024-05-09T11:31:15.666Z,606.00
2024-05-09T11:32:14.693Z,606.00
2024-05-09T11:33:14.709Z,608.00
2024-05-09T11:34:14.630Z,607.00
2024-05-09T11:35:14.614Z,609.00
2024-05-09T11:36:14.585Z,607.00
2024-05-09T11:37:14.765Z,604.00
2024-05-09T11:38:14.637Z,609.00
2024-05-09T11:39:14.737Z,611.00
2024-05-09T11:40:21.437Z,610.00
2024-05-09T11:41:15.613Z,611.00
2024-05-09T11:42:14.600Z,609.00
2024-05-09T11:43:14.655Z,611.00
2024-05-09T11:44:14.637Z,609.00
2024-05-09T11:45:14.590Z,607.00
2024-05-09T11:46:14.915Z,606.00
2024-05-09T11:47:14.664Z,606.00
2024-05-09T11:48:14.719Z,605.00
2024-05-09T11:49:14.751Z,608.00
2024-05-09T11:50:22.526Z,604.00
2024-05-09T11:51:15.623Z,604.00
2024-05-09T11:52:14.704Z,605.00
2024-05-09T11:53:14.931Z,606.00
2024-05-09T11:54:14.621Z,606.00
2024-05-09T11:55:14.787Z,607.00
2024-05-09T11:56:14.623Z,609.00
2024-05-09T11:57:14.618Z,608.00
2024-05-09T11:58:14.743Z,604.00
2024-05-09T11:59:14.629Z,604.00
2024-05-09T12:00:20.793Z,604.00
2024-05-09T12:01:15.700Z,604.00
2024-05-09T12:02:15.580Z,604.00
2024-05-09T12:03:14.870Z,604.00
2024-05-09T12:04:14.943Z,605.00
2024-05-09T12:05:14.759Z,603.00
2024-05-09T12:06:14.677Z,603.00
2024-05-09T12:07:14.725Z,604.00
2024-05-09T12:08:14.639Z,600.00
2024-05-09T12:09:14.653Z,607.00
2024-05-09T12:10:19.802Z,607.00
2024-05-09T12:11:15.698Z,607.00
2024-05-09T12:12:14.653Z,605.00
2024-05-09T12:13:14.710Z,607.00
2024-05-09T12:14:14.648Z,604.00
2024-05-09T12:15:14.674Z,605.00
2024-05-09T12:16:14.795Z,605.00
2024-05-09T12:17:14.734Z,604.00
2024-05-09T12:18:14.703Z,602.00
2024-05-09T12:19:14.694Z,604.00
2024-05-09T12:20:21.453Z,603.00
2024-05-09T12:21:15.675Z,603.00
2024-05-09T12:22:14.804Z,603.00
2024-05-09T12:23:14.928Z,604.00
2024-05-09T12:24:18.264Z,605.00
2024-05-09T12:25:14.835Z,603.00
2024-05-09T12:26:14.667Z,603.00
2024-05-09T12:27:14.686Z,603.00
2024-05-09T12:28:15.021Z,603.00
2024-05-09T12:29:14.707Z,606.00
2024-05-09T12:30:20.908Z,601.00
2024-05-09T12:31:15.738Z,601.00
2024-05-09T12:32:14.680Z,602.00
2024-05-09T12:33:14.747Z,601.00
2024-05-09T12:34:14.925Z,603.00
2024-05-09T12:35:14.814Z,600.00
2024-05-09T12:36:14.726Z,603.00
2024-05-09T12:37:14.792Z,603.00
2024-05-09T12:38:14.925Z,600.00
2024-05-09T12:39:14.708Z,605.00
2024-05-09T12:40:22.914Z,603.00
2024-05-09T12:41:15.714Z,603.00